createdAt,value
2018-09-28T00:00:21.133Z,1015.30
2018-09-28T00:01:21.096Z,1015.31
2018-09-28T00:02:21.063Z,1015.31
2018-09-28T00:03:21.028Z,1015.28
2018-09-28T00:04:21.002Z,1015.26
2018-09-28T00:05:20.962Z,1015.28
2018-09-28T00:06:20.929Z,1015.29
2018-09-28T00:07:20.894Z,1015.30
2018-09-28T00:08:20.860Z,1015.35
2018-09-28T00:09:20.835Z,1015.39
2018-09-28T00:10:20.793Z,1015.40
2018-09-28T00:11:20.759Z,1015.41
2018-09-28T00:12:20.724Z,1015.40
2018-09-28T00:13:20.690Z,1015.42
2018-09-28T00:14:20.664Z,1015.41
2018-09-28T00:15:20.623Z,1015.38
2018-09-28T00:16:20.588Z,1015.39
2018-09-28T00:17:20.557Z,1015.44
2018-09-28T00:18:20.519Z,1015.42
2018-09-28T00:19:20.494Z,1015.41
2018-09-28T00:20:20.453Z,1015.37
2018-09-28T00:21:20.416Z,1015.35
2018-09-28T00:22:20.385Z,1015.34
2018-09-28T00:23:20.353Z,1015.31
2018-09-28T00:24:20.340Z,1015.32
2018-09-28T00:25:20.284Z,1015.26
2018-09-28T00:26:20.278Z,1015.28
2018-09-28T00:27:20.217Z,1015.25
2018-09-28T00:28:20.184Z,1015.26
2018-09-28T00:29:20.146Z,1015.26
2018-09-28T00:30:20.122Z,1015.35
2018-09-28T00:31:20.087Z,1015.45
2018-09-28T00:32:20.047Z,1015.47
2018-09-28T00:33:20.011Z,1015.54
2018-09-28T00:34:19.977Z,1015.55
2018-09-28T00:35:19.953Z,1015.49
2018-09-28T00:36:19.913Z,1015.33
2018-09-28T00:37:19.878Z,1015.42
2018-09-28T00:38:19.842Z,1015.56
2018-09-28T00:39:19.807Z,1015.63
2018-09-28T00:40:19.785Z,1015.57
2018-09-28T00:41:19.737Z,1015.47
2018-09-28T00:42:19.706Z,1015.38
2018-09-28T00:43:19.670Z,1015.41
2018-09-28T00:44:19.635Z,1015.50
2018-09-28T00:45:19.609Z,1015.54
2018-09-28T00:46:19.567Z,1015.48
2018-09-28T00:47:19.534Z,1015.45
2018-09-28T00:48:19.499Z,1015.37
2018-09-28T00:49:19.463Z,1015.35
2018-09-28T00:50:19.440Z,1015.39
2018-09-28T00:51:19.397Z,1015.42
2018-09-28T00:52:19.363Z,1015.39
2018-09-28T00:53:19.329Z,1015.34
2018-09-28T00:54:19.295Z,1015.26
2018-09-28T00:55:19.268Z,1015.29
2018-09-28T00:56:19.227Z,1015.34
2018-09-28T00:57:19.191Z,1015.35
2018-09-28T00:58:19.161Z,1015.34
2018-09-28T00:59:19.123Z,1015.30
2018-09-28T01:00:19.097Z,1015.27
2018-09-28T01:01:19.055Z,1015.22
2018-09-28T01:02:19.022Z,1015.24
2018-09-28T01:03:18.987Z,1015.21
2018-09-28T01:04:18.953Z,1015.24
2018-09-28T01:05:18.924Z,1015.22
2018-09-28T01:06:18.884Z,1015.21
2018-09-28T01:07:18.849Z,1015.22
2018-09-28T01:08:18.818Z,1015.14
2018-09-28T01:09:18.781Z,1015.15
2018-09-28T01:10:18.746Z,1015.07
2018-09-28T01:11:18.722Z,1015.07
2018-09-28T01:12:18.683Z,1015.10
2018-09-28T01:13:18.644Z,1015.12
2018-09-28T01:14:18.623Z,1015.15
2018-09-28T01:15:18.575Z,1015.20
2018-09-28T01:16:18.549Z,1015.18
2018-09-28T01:17:18.508Z,1015.15
2018-09-28T01:18:18.474Z,1015.15
2018-09-28T01:19:18.439Z,1015.12
2018-09-28T01:20:18.406Z,1015.11
2018-09-28T01:21:18.381Z,1015.13
2018-09-28T01:22:18.332Z,1015.12
2018-09-28T01:23:18.301Z,1015.13
2018-09-28T01:24:18.295Z,1015.15
2018-09-28T01:25:18.231Z,1015.17
2018-09-28T01:26:18.209Z,1015.15
2018-09-28T01:27:18.160Z,1015.12
2018-09-28T01:28:18.133Z,1015.14
2018-09-28T01:29:18.096Z,1015.14
2018-09-28T01:30:18.062Z,1015.17
2018-09-28T01:31:18.035Z,1015.17
2018-09-28T01:32:17.991Z,1015.19
2018-09-28T01:33:17.957Z,1015.16
2018-09-28T01:34:17.922Z,1015.16
2018-09-28T01:35:17.894Z,1015.12
2018-09-28T01:36:17.868Z,1015.16
2018-09-28T01:37:17.820Z,1015.18
2018-09-28T01:38:17.789Z,1015.12
2018-09-28T01:39:17.751Z,1015.20
2018-09-28T01:40:17.717Z,1015.20
2018-09-28T01:41:17.683Z,1015.18
2018-09-28T01:42:17.662Z,1015.17
2018-09-28T01:43:17.613Z,1015.20
2018-09-28T01:44:17.579Z,1015.23
2018-09-28T01:45:17.546Z,1015.20
2018-09-28T01:46:17.511Z,1015.21
2018-09-28T01:47:17.484Z,1015.24
2018-09-28T01:48:17.444Z,1015.24
2018-09-28T01:49:17.407Z,1015.26
2018-09-28T01:50:17.376Z,1015.25
2018-09-28T01:51:17.345Z,1015.23
2018-09-28T01:52:17.311Z,1015.22
2018-09-28T01:53:17.272Z,1015.25
2018-09-28T01:54:17.235Z,1015.25
2018-09-28T01:55:17.202Z,1015.30
2018-09-28T01:56:17.172Z,1015.24
2018-09-28T01:57:17.135Z,1015.29
2018-09-28T01:58:17.097Z,1015.28
2018-09-28T01:59:17.067Z,1015.27
2018-09-28T02:00:17.030Z,1015.24
2018-09-28T02:01:16.996Z,1015.25
2018-09-28T02:02:16.970Z,1015.27
2018-09-28T02:03:16.931Z,1015.26
2018-09-28T02:04:16.897Z,1015.28
2018-09-28T02:05:16.859Z,1015.26
2018-09-28T02:06:16.831Z,1015.25
2018-09-28T02:07:16.800Z,1015.24
2018-09-28T02:08:16.758Z,1015.25
2018-09-28T02:09:16.727Z,1015.29
2018-09-28T02:10:16.690Z,1015.26
2018-09-28T02:11:16.657Z,1015.22
2018-09-28T02:12:16.643Z,1015.26
2018-09-28T02:13:16.589Z,1015.26
2018-09-28T02:14:16.554Z,1015.30
2018-09-28T02:15:16.521Z,1015.26
2018-09-28T02:16:16.488Z,1015.30
2018-09-28T02:17:16.452Z,1015.34
2018-09-28T02:18:16.429Z,1015.34
2018-09-28T02:19:16.387Z,1015.38
2018-09-28T02:20:16.353Z,1015.38
2018-09-28T02:21:16.320Z,1015.35
2018-09-28T02:22:16.285Z,1015.40
2018-09-28T02:23:16.260Z,1015.30
2018-09-28T02:24:16.230Z,1015.35
2018-09-28T02:25:16.186Z,1015.30
2018-09-28T02:26:16.151Z,1015.32
2018-09-28T02:27:16.118Z,1015.31
2018-09-28T02:28:16.090Z,1015.29
2018-09-28T02:29:16.048Z,1015.31
2018-09-28T02:30:16.016Z,1015.31
2018-09-28T02:31:15.982Z,1015.32
2018-09-28T02:32:15.949Z,1015.33
2018-09-28T02:33:15.925Z,1015.32
2018-09-28T02:34:15.886Z,1015.35
2018-09-28T02:35:15.850Z,1015.31
2018-09-28T02:36:15.817Z,1015.35
2018-09-28T02:37:15.846Z,1015.36
2018-09-28T02:38:15.758Z,1015.41
2018-09-28T02:39:15.719Z,1015.35
2018-09-28T02:40:15.682Z,1015.34
2018-09-28T02:41:15.651Z,1015.34
2018-09-28T02:42:15.620Z,1015.28
2018-09-28T02:43:15.583Z,1015.31
2018-09-28T02:44:15.561Z,1015.27
2018-09-28T02:45:15.520Z,1015.28
2018-09-28T02:46:15.485Z,1015.29
2018-09-28T02:47:15.452Z,1015.32
2018-09-28T02:48:15.418Z,1015.34
2018-09-28T02:49:15.390Z,1015.32
2018-09-28T02:50:15.351Z,1015.32
2018-09-28T02:51:15.319Z,1015.32
2018-09-28T02:52:15.283Z,1015.32
2018-09-28T02:53:15.258Z,1015.35
2018-09-28T02:54:15.229Z,1015.34
2018-09-28T02:55:15.190Z,1015.36
2018-09-28T02:56:15.152Z,1015.37
2018-09-28T02:57:15.119Z,1015.39
2018-09-28T02:58:15.089Z,1015.40
2018-09-28T02:59:15.060Z,1015.40
2018-09-28T03:00:15.021Z,1015.39
2018-09-28T03:01:14.983Z,1015.39
2018-09-28T03:02:14.955Z,1015.43
2018-09-28T03:03:14.922Z,1015.36
2018-09-28T03:04:14.894Z,1015.41
2018-09-28T03:05:14.854Z,1015.37
2018-09-28T03:06:14.873Z,1015.36
2018-09-28T03:07:14.788Z,1015.38
2018-09-28T03:08:14.759Z,1015.40
2018-09-28T03:09:14.734Z,1015.42
2018-09-28T03:10:14.694Z,1015.45
2018-09-28T03:11:14.656Z,1015.44
2018-09-28T03:12:14.627Z,1015.43
2018-09-28T03:13:14.592Z,1015.48
2018-09-28T03:14:14.565Z,1015.44
2018-09-28T03:15:14.524Z,1015.46
2018-09-28T03:16:14.492Z,1015.46
2018-09-28T03:17:14.463Z,1015.45
2018-09-28T03:18:14.429Z,1015.45
2018-09-28T03:19:14.422Z,1015.46
2018-09-28T03:20:14.361Z,1015.47
2018-09-28T03:21:14.329Z,1015.46
2018-09-28T03:22:14.296Z,1015.44
2018-09-28T03:23:14.263Z,1015.48
2018-09-28T03:24:14.232Z,1015.47
2018-09-28T03:25:14.203Z,1015.52
2018-09-28T03:26:14.163Z,1015.53
2018-09-28T03:27:14.132Z,1015.50
2018-09-28T03:28:14.101Z,1015.52
2018-09-28T03:29:14.066Z,1015.51
2018-09-28T03:30:14.041Z,1015.50
2018-09-28T03:31:13.999Z,1015.55
2018-09-28T03:32:13.973Z,1015.47
2018-09-28T03:33:13.935Z,1015.49
2018-09-28T03:34:13.904Z,1015.57
2018-09-28T03:35:13.878Z,1015.49
2018-09-28T03:36:13.837Z,1015.53
2018-09-28T03:37:13.805Z,1015.53
2018-09-28T03:38:13.769Z,1015.50
2018-09-28T03:39:13.739Z,1015.50
2018-09-28T03:40:13.714Z,1015.49
2018-09-28T03:41:13.675Z,1015.47
2018-09-28T03:42:13.644Z,1015.52
2018-09-28T03:43:13.606Z,1015.53
2018-09-28T03:44:13.576Z,1015.55
2018-09-28T03:45:13.560Z,1015.56
2018-09-28T03:46:13.513Z,1015.57
2018-09-28T03:47:13.479Z,1015.55
2018-09-28T03:48:13.447Z,1015.56
2018-09-28T03:49:13.412Z,1015.54
2018-09-28T03:50:13.379Z,1015.56
2018-09-28T03:51:13.355Z,1015.59
2018-09-28T03:52:13.315Z,1015.63
2018-09-28T03:53:13.283Z,1015.62
2018-09-28T03:54:13.249Z,1015.70
2018-09-28T03:55:13.217Z,1015.74
2018-09-28T03:56:13.195Z,1015.73
2018-09-28T03:57:13.152Z,1015.76
2018-09-28T03:58:13.118Z,1015.74
2018-09-28T03:59:13.085Z,1015.69
2018-09-28T04:00:13.059Z,1015.74
2018-09-28T04:01:13.028Z,1015.74
2018-09-28T04:02:12.988Z,1015.75
2018-09-28T04:03:12.957Z,1015.74
2018-09-28T04:04:12.924Z,1015.79
2018-09-28T04:05:12.900Z,1015.74
2018-09-28T04:06:12.865Z,1015.80
2018-09-28T04:07:12.826Z,1015.74
2018-09-28T04:08:12.799Z,1015.71
2018-09-28T04:09:12.760Z,1015.70
2018-09-28T04:10:12.729Z,1015.70
2018-09-28T04:11:12.707Z,1015.68
2018-09-28T04:12:12.666Z,1015.70
2018-09-28T04:13:12.631Z,1015.67
2018-09-28T04:14:12.597Z,1015.69
2018-09-28T04:15:12.622Z,1015.68
2018-09-28T04:16:12.547Z,1015.65
2018-09-28T04:17:12.498Z,1015.68
2018-09-28T04:18:12.469Z,1015.69
2018-09-28T04:19:12.438Z,1015.69
2018-09-28T04:20:12.405Z,1015.69
2018-09-28T04:21:12.371Z,1015.73
2018-09-28T04:22:12.348Z,1015.74
2018-09-28T04:23:12.306Z,1015.76
2018-09-28T04:24:12.274Z,1015.80
2018-09-28T04:25:12.243Z,1015.79
2018-09-28T04:26:12.210Z,1015.81
2018-09-28T04:27:12.187Z,1015.84
2018-09-28T04:28:12.144Z,1015.87
2018-09-28T04:29:12.112Z,1015.87
2018-09-28T04:30:12.078Z,1015.85
2018-09-28T04:31:12.047Z,1015.82
2018-09-28T04:32:12.027Z,1015.82
2018-09-28T04:33:11.985Z,1015.84
2018-09-28T04:34:11.949Z,1015.84
2018-09-28T04:35:11.916Z,1015.85
2018-09-28T04:36:11.884Z,1015.92
2018-09-28T04:37:11.863Z,1015.94
2018-09-28T04:38:11.820Z,1016.04
2018-09-28T04:39:11.786Z,1016.03
2018-09-28T04:40:11.753Z,1016.03
2018-09-28T04:41:11.721Z,1016.04
2018-09-28T04:42:11.698Z,1016.04
2018-09-28T04:43:11.657Z,1016.09
2018-09-28T04:44:11.636Z,1016.08
2018-09-28T04:45:11.621Z,1016.09
2018-09-28T04:46:11.562Z,1016.10
2018-09-28T04:47:11.537Z,1016.14
2018-09-28T04:48:11.507Z,1016.12
2018-09-28T04:49:11.464Z,1016.12
2018-09-28T04:50:11.431Z,1016.11
2018-09-28T04:51:11.397Z,1016.13
2018-09-28T04:52:11.364Z,1016.15
2018-09-28T04:53:11.337Z,1016.18
2018-09-28T04:54:11.369Z,1016.18
2018-09-28T04:55:11.266Z,1016.24
2018-09-28T04:56:11.247Z,1016.22
2018-09-28T04:57:11.206Z,1016.20
2018-09-28T04:58:11.176Z,1016.22
2018-09-28T04:59:11.137Z,1016.21
2018-09-28T05:00:11.104Z,1016.18
2018-09-28T05:01:11.071Z,1016.26
2018-09-28T05:02:11.043Z,1016.28
2018-09-28T05:03:11.014Z,1016.32
2018-09-28T05:04:10.975Z,1016.38
2018-09-28T05:05:10.941Z,1016.36
2018-09-28T05:06:11.009Z,1016.36
2018-09-28T05:07:10.879Z,1016.45
2018-09-28T05:08:10.858Z,1016.44
2018-09-28T05:09:10.814Z,1016.46
2018-09-28T05:10:10.780Z,1016.52
2018-09-28T05:11:10.749Z,1016.48
2018-09-28T05:12:10.714Z,1016.47
2018-09-28T05:13:10.786Z,1016.51
2018-09-28T05:14:10.668Z,1016.56
2018-09-28T05:15:10.618Z,1016.59
2018-09-28T05:16:10.588Z,1016.60
2018-09-28T05:17:10.555Z,1016.60
2018-09-28T05:18:10.529Z,1016.55
2018-09-28T05:19:10.492Z,1016.58
2018-09-28T05:20:10.457Z,1016.55
2018-09-28T05:21:10.424Z,1016.58
2018-09-28T05:22:10.391Z,1016.56
2018-09-28T05:23:10.377Z,1016.57
2018-09-28T05:24:10.327Z,1016.58
2018-09-28T05:25:10.299Z,1016.55
2018-09-28T05:26:10.261Z,1016.57
2018-09-28T05:27:10.228Z,1016.57
2018-09-28T05:28:10.197Z,1016.58
2018-09-28T05:29:10.173Z,1016.59
2018-09-28T05:30:10.136Z,1016.57
2018-09-28T05:31:10.114Z,1016.58
2018-09-28T05:32:10.172Z,1016.61
2018-09-28T05:33:10.034Z,1016.63
2018-09-28T05:34:10.008Z,1016.69
2018-09-28T05:35:09.994Z,1016.75
2018-09-28T05:36:09.938Z,1016.75
2018-09-28T05:37:09.923Z,1016.83
2018-09-28T05:38:09.875Z,1016.83
2018-09-28T05:39:09.847Z,1016.86
2018-09-28T05:40:09.806Z,1016.84
2018-09-28T05:41:09.777Z,1016.91
2018-09-28T05:42:09.743Z,1016.96
2018-09-28T05:43:09.711Z,1016.98
2018-09-28T05:44:09.690Z,1017.00
2018-09-28T05:45:09.645Z,1017.06
2018-09-28T05:46:09.636Z,1017.05
2018-09-28T05:47:09.579Z,1017.06
2018-09-28T05:48:09.547Z,1017.10
2018-09-28T05:49:09.522Z,1017.07
2018-09-28T05:50:09.480Z,1017.08
2018-09-28T05:51:09.449Z,1017.09
2018-09-28T05:52:09.417Z,1017.11
2018-09-28T05:53:09.385Z,1017.17
2018-09-28T05:54:09.374Z,1017.18
2018-09-28T05:55:09.321Z,1017.22
2018-09-28T05:56:09.288Z,1017.23
2018-09-28T05:57:09.254Z,1017.20
2018-09-28T05:58:09.223Z,1017.15
2018-09-28T05:59:09.191Z,1017.26
2018-09-28T06:00:09.169Z,1017.26
2018-09-28T06:01:09.124Z,1017.24
2018-09-28T06:02:09.096Z,1017.37
2018-09-28T06:03:09.058Z,1017.37
2018-09-28T06:04:09.033Z,1017.36
2018-09-28T06:05:09.005Z,1017.41
2018-09-28T06:06:08.965Z,1017.51
2018-09-28T06:07:08.933Z,1017.51
2018-09-28T06:08:08.900Z,1017.49
2018-09-28T06:09:08.866Z,1017.50
2018-09-28T06:10:08.845Z,1017.48
2018-09-28T06:11:08.804Z,1017.50
2018-09-28T06:12:08.768Z,1017.60
2018-09-28T06:13:08.736Z,1017.49
2018-09-28T06:14:08.705Z,1017.56
2018-09-28T06:15:08.681Z,1017.58
2018-09-28T06:16:08.638Z,1017.61
2018-09-28T06:17:08.608Z,1017.59
2018-09-28T06:18:08.575Z,1017.67
2018-09-28T06:19:08.542Z,1017.64
2018-09-28T06:20:08.537Z,1017.64
2018-09-28T06:21:08.483Z,1017.68
2018-09-28T06:22:08.445Z,1017.72
2018-09-28T06:23:08.415Z,1017.75
2018-09-28T06:24:08.437Z,1017.76
2018-09-28T06:25:08.346Z,1017.83
2018-09-28T06:26:08.325Z,1017.80
2018-09-28T06:27:08.282Z,1017.78
2018-09-28T06:28:08.253Z,1017.80
2018-09-28T06:29:08.221Z,1017.75
2018-09-28T06:30:08.237Z,1017.76
2018-09-28T06:31:08.161Z,1017.87
2018-09-28T06:32:08.119Z,1017.80
2018-09-28T06:33:08.087Z,1017.89
2018-09-28T06:34:08.053Z,1017.97
2018-09-28T06:35:08.023Z,1017.96
2018-09-28T06:36:08.002Z,1018.09
2018-09-28T06:37:07.958Z,1018.05
2018-09-28T06:38:07.947Z,1017.99
2018-09-28T06:39:07.892Z,1017.94
2018-09-28T06:40:07.860Z,1018.03
2018-09-28T06:41:07.839Z,1018.03
2018-09-28T06:42:07.831Z,1018.05
2018-09-28T06:43:07.768Z,1018.09
2018-09-28T06:44:07.736Z,1018.09
2018-09-28T06:45:07.697Z,1018.09
2018-09-28T06:46:07.668Z,1018.18
2018-09-28T06:47:07.642Z,1018.08
2018-09-28T06:48:07.619Z,1018.10
2018-09-28T06:49:07.569Z,1018.14
2018-09-28T06:50:07.537Z,1018.14
2018-09-28T06:51:07.521Z,1018.14
2018-09-28T06:52:07.481Z,1018.17
2018-09-28T06:53:07.439Z,1018.17
2018-09-28T06:54:07.471Z,1018.14
2018-09-28T06:55:07.378Z,1018.19
2018-09-28T06:56:07.357Z,1018.18
2018-09-28T06:57:07.317Z,1018.19
2018-09-28T06:58:07.326Z,1018.22
2018-09-28T06:59:07.247Z,1018.28
2018-09-28T07:00:07.221Z,1018.30
2018-09-28T07:01:07.180Z,1018.35
2018-09-28T07:02:07.156Z,1018.36
2018-09-28T07:03:07.116Z,1018.33
2018-09-28T07:04:07.139Z,1018.45
2018-09-28T07:05:07.053Z,1018.44
2018-09-28T07:06:07.039Z,1018.39
2018-09-28T07:07:06.997Z,1018.43
2018-09-28T07:08:06.955Z,1018.37
2018-09-28T07:09:06.925Z,1018.42
2018-09-28T07:10:06.891Z,1018.43
2018-09-28T07:11:06.859Z,1018.44
2018-09-28T07:12:06.833Z,1018.48
2018-09-28T07:13:06.804Z,1018.52
2018-09-28T07:14:06.763Z,1018.47
2018-09-28T07:15:06.730Z,1018.50
2018-09-28T07:16:06.704Z,1018.50
2018-09-28T07:17:06.713Z,1018.53
2018-09-28T07:18:06.660Z,1018.58
2018-09-28T07:19:06.604Z,1018.62
2018-09-28T07:20:06.589Z,1018.68
2018-09-28T07:21:06.547Z,1018.71
2018-09-28T07:22:06.507Z,1018.64
2018-09-28T07:23:06.483Z,1018.66
2018-09-28T07:24:06.472Z,1018.71
2018-09-28T07:25:06.470Z,1018.74
2018-09-28T07:26:06.380Z,1018.74
2018-09-28T07:27:06.345Z,1018.76
2018-09-28T07:28:06.331Z,1018.76
2018-09-28T07:29:06.286Z,1018.78
2018-09-28T07:30:06.282Z,1018.80
2018-09-28T07:31:06.220Z,1018.84
2018-09-28T07:32:06.191Z,1018.82
2018-09-28T07:33:06.164Z,1018.78
2018-09-28T07:34:06.126Z,1018.82
2018-09-28T07:35:06.096Z,1018.83
2018-09-28T07:36:06.246Z,1018.81
2018-09-28T07:37:06.234Z,1018.86
2018-09-28T07:38:06.020Z,1018.89
2018-09-28T07:39:05.970Z,1018.82
2018-09-28T07:40:05.940Z,1018.82
2018-09-28T07:41:05.905Z,1018.88
2018-09-28T07:42:05.930Z,1018.91
2018-09-28T07:43:05.848Z,1018.89
2018-09-28T07:44:05.824Z,1018.91
2018-09-28T07:45:05.784Z,1018.90
2018-09-28T07:46:05.753Z,1018.90
2018-09-28T07:47:05.718Z,1018.93
2018-09-28T07:48:05.741Z,1018.96
2018-09-28T07:49:05.719Z,1019.00
2018-09-28T07:50:05.624Z,1018.95
2018-09-28T07:51:05.593Z,1019.07
2018-09-28T07:52:05.569Z,1019.01
2018-09-28T07:53:05.531Z,1019.03
2018-09-28T07:54:05.509Z,1019.00
2018-09-28T07:55:05.469Z,1019.05
2018-09-28T07:56:05.441Z,1019.11
2018-09-28T07:57:05.407Z,1019.10
2018-09-28T07:58:05.381Z,1019.11
2018-09-28T07:59:05.357Z,1019.17
2018-09-28T08:00:05.316Z,1019.12
2018-09-28T08:01:05.282Z,1019.16
2018-09-28T08:02:05.255Z,1019.20
2018-09-28T08:03:05.230Z,1019.22
2018-09-28T08:04:05.273Z,1019.16
2018-09-28T08:05:05.160Z,1019.22
2018-09-28T08:06:05.129Z,1019.25
2018-09-28T08:07:05.100Z,1019.38
2018-09-28T08:08:05.066Z,1019.25
2018-09-28T08:09:05.654Z,1019.24
2018-09-28T08:10:05.008Z,1019.28
2018-09-28T08:11:04.978Z,1019.26
2018-09-28T08:12:04.943Z,1019.28
2018-09-28T08:13:04.910Z,1019.31
2018-09-28T08:14:04.882Z,1019.32
2018-09-28T08:15:04.864Z,1019.33
2018-09-28T08:16:04.819Z,1019.32
2018-09-28T08:17:04.790Z,1019.39
2018-09-28T08:18:04.755Z,1019.37
2018-09-28T08:19:04.725Z,1019.40
2018-09-28T08:20:04.703Z,1019.41
2018-09-28T08:21:04.662Z,1019.48
2018-09-28T08:22:04.630Z,1019.51
2018-09-28T08:23:04.599Z,1019.55
2018-09-28T08:24:04.569Z,1019.43
2018-09-28T08:25:04.545Z,1019.47
2018-09-28T08:26:04.518Z,1019.43
2018-09-28T08:27:04.475Z,1019.42
2018-09-28T08:28:04.446Z,1019.42
2018-09-28T08:29:04.415Z,1019.46
2018-09-28T08:30:04.394Z,1019.56
2018-09-28T08:31:04.404Z,1019.53
2018-09-28T08:32:04.323Z,1019.55
2018-09-28T08:33:04.295Z,1019.59
2018-09-28T08:34:04.260Z,1019.57
2018-09-28T08:35:04.242Z,1019.56
2018-09-28T08:36:04.199Z,1019.58
2018-09-28T08:37:04.170Z,1019.65
2018-09-28T08:38:04.137Z,1019.62
2018-09-28T08:39:04.106Z,1019.63
2018-09-28T08:40:04.096Z,1019.65
2018-09-28T08:41:04.046Z,1019.65
2018-09-28T08:42:04.013Z,1019.69
2018-09-28T08:43:03.985Z,1019.71
2018-09-28T08:44:03.958Z,1019.72
2018-09-28T08:45:03.923Z,1019.66
2018-09-28T08:46:03.903Z,1019.71
2018-09-28T08:47:03.863Z,1019.75
2018-09-28T08:48:03.832Z,1019.75
2018-09-28T08:49:03.816Z,1019.75
2018-09-28T08:50:03.773Z,1019.79
2018-09-28T08:51:03.747Z,1019.77
2018-09-28T08:52:03.709Z,1019.75
2018-09-28T08:53:03.679Z,1019.78
2018-09-28T08:54:03.649Z,1019.76
2018-09-28T08:55:03.619Z,1019.77
2018-09-28T08:56:03.600Z,1019.84
2018-09-28T08:57:03.559Z,1019.84
2018-09-28T08:58:03.532Z,1019.83
2018-09-28T08:59:03.498Z,1019.89
2018-09-28T09:00:03.469Z,1019.89
2018-09-28T09:01:03.449Z,1019.84
2018-09-28T09:02:03.416Z,1019.87
2018-09-28T09:03:03.378Z,1019.88
2018-09-28T09:04:03.351Z,1019.93
2018-09-28T09:05:03.316Z,1019.92
2018-09-28T09:06:03.297Z,1019.93
2018-09-28T09:07:03.259Z,1019.96
2018-09-28T09:08:03.227Z,1019.95
2018-09-28T09:09:03.197Z,1019.93
2018-09-28T09:10:03.169Z,1019.98
2018-09-28T09:11:03.165Z,1020.00
2018-09-28T09:12:03.104Z,1020.02
2018-09-28T09:13:03.077Z,1020.04
2018-09-28T09:14:03.048Z,1020.05
2018-09-28T09:15:03.016Z,1020.10
2018-09-28T09:16:02.989Z,1020.14
2018-09-28T09:17:02.970Z,1020.18
2018-09-28T09:18:03.023Z,1020.17
2018-09-28T09:19:02.897Z,1020.17
2018-09-28T09:20:02.868Z,1020.20
2018-09-28T09:21:02.843Z,1020.18
2018-09-28T09:22:02.817Z,1020.14
2018-09-28T09:23:02.780Z,1020.13
2018-09-28T09:24:02.821Z,1020.13
2018-09-28T09:25:02.722Z,1020.15
2018-09-28T09:26:02.745Z,1020.19
2018-09-28T09:27:02.668Z,1020.12
2018-09-28T09:28:02.634Z,1020.15
2018-09-28T09:29:02.600Z,1020.15
2018-09-28T09:30:02.636Z,1020.15
2018-09-28T09:31:02.539Z,1020.19
2018-09-28T09:32:02.538Z,1020.18
2018-09-28T09:33:02.479Z,1020.16
2018-09-28T09:34:02.450Z,1020.15
2018-09-28T09:35:02.424Z,1020.18
2018-09-28T09:36:02.390Z,1020.19
2018-09-28T09:37:02.363Z,1020.16
2018-09-28T09:38:02.336Z,1020.20
2018-09-28T09:39:02.299Z,1020.22
2018-09-28T09:40:02.271Z,1020.21
2018-09-28T09:41:02.241Z,1020.27
2018-09-28T09:42:02.209Z,1020.26
2018-09-28T09:43:02.191Z,1020.27
2018-09-28T09:44:02.152Z,1020.28
2018-09-28T09:45:02.119Z,1020.29
2018-09-28T09:46:02.091Z,1020.40
2018-09-28T09:47:02.061Z,1020.39
2018-09-28T09:48:02.039Z,1020.38
2018-09-28T09:49:02.002Z,1020.32
2018-09-28T09:50:01.973Z,1020.34
2018-09-28T09:51:01.942Z,1020.39
2018-09-28T09:52:01.914Z,1020.33
2018-09-28T09:53:01.892Z,1020.32
2018-09-28T09:54:01.853Z,1020.35
2018-09-28T09:55:01.823Z,1020.33
2018-09-28T09:56:01.793Z,1020.28
2018-09-28T09:57:01.764Z,1020.28
2018-09-28T09:58:01.793Z,1020.33
2018-09-28T09:59:01.707Z,1020.30
2018-09-28T10:00:01.680Z,1020.31
2018-09-28T10:01:01.642Z,1020.37
2018-09-28T10:02:01.618Z,1020.35
2018-09-28T10:03:01.593Z,1020.36
2018-09-28T10:04:01.555Z,1020.45
2018-09-28T10:05:01.528Z,1020.38
2018-09-28T10:06:01.498Z,1020.39
2018-09-28T10:07:01.466Z,1020.39
2018-09-28T10:08:01.461Z,1020.39
2018-09-28T10:09:01.418Z,1020.36
2018-09-28T10:10:01.383Z,1020.43
2018-09-28T10:11:01.349Z,1020.40
2018-09-28T10:12:01.322Z,1020.38
2018-09-28T10:13:01.293Z,1020.39
2018-09-28T10:14:01.270Z,1020.40
2018-09-28T10:15:01.232Z,1020.41
2018-09-28T10:16:01.204Z,1020.38
2018-09-28T10:17:01.176Z,1020.39
2018-09-28T10:18:01.143Z,1020.36
2018-09-28T10:19:01.123Z,1020.35
2018-09-28T10:20:01.086Z,1020.36
2018-09-28T10:21:01.058Z,1020.41
2018-09-28T10:22:01.034Z,1020.40
2018-09-28T10:23:01.069Z,1020.42
2018-09-28T10:24:00.979Z,1020.39
2018-09-28T10:25:00.940Z,1020.41
2018-09-28T10:26:00.910Z,1020.38
2018-09-28T10:27:00.910Z,1020.45
2018-09-28T10:28:00.892Z,1020.39
2018-09-28T10:29:00.825Z,1020.45
2018-09-28T10:30:00.800Z,1020.40
2018-09-28T10:31:00.761Z,1020.50
2018-09-28T10:32:00.734Z,1020.52
2018-09-28T10:33:00.707Z,1020.45
2018-09-28T10:34:00.674Z,1020.39
2018-09-28T10:35:00.653Z,1020.43
2018-09-28T10:36:00.621Z,1020.40
2018-09-28T10:37:00.582Z,1020.58
2018-09-28T10:38:00.555Z,1020.44
2018-09-28T10:39:00.526Z,1020.47
2018-09-28T10:40:00.506Z,1020.48
2018-09-28T10:41:00.544Z,1020.50
2018-09-28T10:42:00.437Z,1020.51
2018-09-28T10:43:00.407Z,1020.42
2018-09-28T10:44:00.380Z,1020.49
2018-09-28T10:45:00.357Z,1020.47
2018-09-28T10:46:00.321Z,1020.50
2018-09-28T10:47:00.287Z,1020.51
2018-09-28T10:48:00.258Z,1020.49
2018-09-28T10:49:00.227Z,1020.60
2018-09-28T10:50:00.209Z,1020.52
2018-09-28T10:51:00.184Z,1020.53
2018-09-28T10:52:00.300Z,1020.62
2018-09-28T10:53:00.135Z,1020.53
2018-09-28T10:54:00.082Z,1020.55
2018-09-28T10:55:00.063Z,1020.55
2018-09-28T10:56:00.022Z,1020.53
2018-09-28T10:56:59.992Z,1020.46
2018-09-28T10:57:59.963Z,1020.43
2018-09-28T10:58:59.934Z,1020.40
2018-09-28T10:59:59.904Z,1020.34
2018-09-28T11:00:59.882Z,1020.35
2018-09-28T11:01:59.846Z,1020.40
2018-09-28T11:02:59.818Z,1020.42
2018-09-28T11:03:59.791Z,1020.41
2018-09-28T11:04:59.759Z,1020.40
2018-09-28T11:05:59.735Z,1020.40
2018-09-28T11:06:59.701Z,1020.39
2018-09-28T11:07:59.672Z,1020.36
2018-09-28T11:08:59.729Z,1020.31
2018-09-28T11:09:59.615Z,1020.35
2018-09-28T11:10:59.597Z,1020.46
2018-09-28T11:11:59.557Z,1020.39
2018-09-28T11:12:59.530Z,1020.43
2018-09-28T11:13:59.500Z,1020.44
2018-09-28T11:14:59.470Z,1020.45
2018-09-28T11:15:59.452Z,1020.45
2018-09-28T11:16:59.414Z,1020.46
2018-09-28T11:17:59.386Z,1020.41
2018-09-28T11:18:59.394Z,1020.43
2018-09-28T11:19:59.331Z,1020.42
2018-09-28T11:20:59.306Z,1020.39
2018-09-28T11:21:59.272Z,1020.35
2018-09-28T11:22:59.243Z,1020.32
2018-09-28T11:23:59.219Z,1020.31
2018-09-28T11:24:59.192Z,1020.34
2018-09-28T11:25:59.164Z,1020.35
2018-09-28T11:26:59.128Z,1020.34
2018-09-28T11:27:59.100Z,1020.29
2018-09-28T11:28:59.071Z,1020.27
2018-09-28T11:29:59.041Z,1020.38
2018-09-28T11:30:59.025Z,1020.32
2018-09-28T11:31:58.989Z,1020.33
2018-09-28T11:32:58.957Z,1020.29
2018-09-28T11:33:58.931Z,1020.31
2018-09-28T11:34:58.898Z,1020.22
2018-09-28T11:35:58.893Z,1020.28
2018-09-28T11:36:58.838Z,1020.33
2018-09-28T11:37:58.824Z,1020.34
2018-09-28T11:38:58.782Z,1020.37
2018-09-28T11:39:58.754Z,1020.41
2018-09-28T11:40:58.723Z,1020.41
2018-09-28T11:41:58.703Z,1020.41
2018-09-28T11:42:58.667Z,1020.39
2018-09-28T11:43:58.636Z,1020.34
2018-09-28T11:44:58.608Z,1020.36
2018-09-28T11:45:58.580Z,1020.33
2018-09-28T11:46:58.557Z,1020.28
2018-09-28T11:47:58.519Z,1020.29
2018-09-28T11:48:58.494Z,1020.28
2018-09-28T11:49:58.464Z,1020.25
2018-09-28T11:50:58.439Z,1020.27
2018-09-28T11:51:58.413Z,1020.28
2018-09-28T11:52:58.374Z,1020.36
2018-09-28T11:53:58.345Z,1020.32
2018-09-28T11:54:58.313Z,1020.29
2018-09-28T11:55:58.284Z,1020.38
2018-09-28T11:56:58.278Z,1020.44
2018-09-28T11:57:58.225Z,1020.40
2018-09-28T11:58:58.195Z,1020.37
2018-09-28T11:59:58.180Z,1020.35
2018-09-28T12:00:58.136Z,1020.32
2018-09-28T12:01:58.107Z,1020.35
2018-09-28T12:02:58.087Z,1020.38
2018-09-28T12:03:58.049Z,1020.30
2018-09-28T12:04:58.058Z,1020.29